sensor_id;sensor_type;location;lat;lon;timestamp;temperature;humidity
71155;DHT22;59375;53.216;5.728;2022-09-27T00:01:03;10.80;99.90
71155;DHT22;59375;53.216;5.728;2022-09-27T00:03:30;10.80;99.90
71155;DHT22;59375;53.216;5.728;2022-09-27T00:06:09;10.90;99.90
71155;DHT22;59375;53.216;5.728;2022-09-27T00:08:36;10.80;99.90
71155;DHT22;59375;53.216;5.728;2022-09-27T00:11:04;10.80;99.90
71155;DHT22;59375;53.216;5.728;2022-09-27T00:13:29;10.80;99.90
71155;DHT22;59375;53.216;5.728;2022-09-27T00:15:57;10.80;99.90
71155;DHT22;59375;53.216;5.728;2022-09-27T00:18:22;10.70;99.90
71155;DHT22;59375;53.216;5.728;2022-09-27T00:20:48;10.60;99.90
71155;DHT22;59375;53.216;5.728;2022-09-27T00:23:13;10.60;99.90
71155;DHT22;59375;53.216;5.728;2022-09-27T00:25:39;10.50;99.90
71155;DHT22;59375;53.216;5.728;2022-09-27T00:28:04;10.60;99.90
71155;DHT22;59375;53.216;5.728;2022-09-27T00:30:30;10.60;99.90
71155;DHT22;59375;53.216;5.728;2022-09-27T00:32:55;10.60;99.90
71155;DHT22;59375;53.216;5.728;2022-09-27T00:35:21;10.60;99.90
71155;DHT22;59375;53.216;5.728;2022-09-27T00:37:47;10.60;99.90
71155;DHT22;59375;53.216;5.728;2022-09-27T00:40:13;10.50;99.90
71155;DHT22;59375;53.216;5.728;2022-09-27T00:42:39;10.50;99.90
71155;DHT22;59375;53.216;5.728;2022-09-27T00:45:13;10.50;99.90
71155;DHT22;59375;53.216;5.728;2022-09-27T00:47:59;10.50;99.90
71155;DHT22;59375;53.216;5.728;2022-09-27T00:50:34;10.50;99.90
71155;DHT22;59375;53.216;5.728;2022-09-27T00:53:24;10.50;99.90
71155;DHT22;59375;53.216;5.728;2022-09-27T00:55:54;10.60;99.90
71155;DHT22;59375;53.216;5.728;2022-09-27T00:58:24;10.60;99.90
71155;DHT22;59375;53.216;5.728;2022-09-27T01:00:54;10.70;99.90
71155;DHT22;59375;53.216;5.728;2022-09-27T01:03:33;10.70;99.90
71155;DHT22;59375;53.216;5.728;2022-09-27T01:06:01;10.70;99.90
71155;DHT22;59375;53.216;5.728;2022-09-27T01:08:27;10.70;99.90
71155;DHT22;59375;53.216;5.728;2022-09-27T01:11:09;10.70;99.90
71155;DHT22;59375;53.216;5.728;2022-09-27T01:13:56;10.80;99.90
71155;DHT22;59375;53.216;5.728;2022-09-27T01:22:23;10.70;99.90
71155;DHT22;59375;53.216;5.728;2022-09-27T01:27:54;10.60;99.90
71155;DHT22;59375;53.216;5.728;2022-09-27T01:30:32;10.50;99.90
71155;DHT22;59375;53.216;5.728;2022-09-27T01:38:53;10.50;99.90
71155;DHT22;59375;53.216;5.728;2022-09-27T01:41:28;10.50;99.90
71155;DHT22;59375;53.216;5.728;2022-09-27T01:44:13;10.60;99.90
71155;DHT22;59375;53.216;5.728;2022-09-27T01:46:48;10.70;99.90
71155;DHT22;59375;53.216;5.728;2022-09-27T01:49:17;10.70;99.90
71155;DHT22;59375;53.216;5.728;2022-09-27T01:51:51;10.60;99.90
71155;DHT22;59375;53.216;5.728;2022-09-27T01:54:30;10.60;99.90
71155;DHT22;59375;53.216;5.728;2022-09-27T01:56:58;10.60;99.90
71155;DHT22;59375;53.216;5.728;2022-09-27T01:59:34;10.50;99.90
71155;DHT22;59375;53.216;5.728;2022-09-27T02:02:07;10.50;99.90
71155;DHT22;59375;53.216;5.728;2022-09-27T02:04:36;10.50;99.90
71155;DHT22;59375;53.216;5.728;2022-09-27T02:07:10;10.40;99.90
71155;DHT22;59375;53.216;5.728;2022-09-27T02:09:49;10.40;99.90
71155;DHT22;59375;53.216;5.728;2022-09-27T02:12:22;10.30;99.90
71155;DHT22;59375;53.216;5.728;2022-09-27T02:15:00;10.30;99.90
71155;DHT22;59375;53.216;5.728;2022-09-27T02:17:36;10.20;99.90
71155;DHT22;59375;53.216;5.728;2022-09-27T02:20:14;10.20;99.90
71155;DHT22;59375;53.216;5.728;2022-09-27T02:22:46;10.10;99.90
71155;DHT22;59375;53.216;5.728;2022-09-27T02:25:27;10.10;99.90
71155;DHT22;59375;53.216;5.728;2022-09-27T02:28:01;10.10;99.90
71155;DHT22;59375;53.216;5.728;2022-09-27T02:30:32;10.10;99.90
71155;DHT22;59375;53.216;5.728;2022-09-27T02:32:58;10.10;99.90
71155;DHT22;59375;53.216;5.728;2022-09-27T02:35:34;10.10;99.90
71155;DHT22;59375;53.216;5.728;2022-09-27T02:38:00;10.20;99.90
71155;DHT22;59375;53.216;5.728;2022-09-27T02:40:30;10.20;99.90
71155;DHT22;59375;53.216;5.728;2022-09-27T02:42:57;10.20;99.90
71155;DHT22;59375;53.216;5.728;2022-09-27T02:45:30;10.20;99.90
71155;DHT22;59375;53.216;5.728;2022-09-27T02:48:29;10.20;99.90
71155;DHT22;59375;53.216;5.728;2022-09-27T02:51:21;10.10;99.90
71155;DHT22;59375;53.216;5.728;2022-09-27T02:54:06;10.10;99.90
71155;DHT22;59375;53.216;5.728;2022-09-27T02:56:57;10.00;99.90
71155;DHT22;59375;53.216;5.728;2022-09-27T03:05:17;9.90;99.90
71155;DHT22;59375;53.216;5.728;2022-09-27T03:07:44;10.00;99.90
71155;DHT22;59375;53.216;5.728;2022-09-27T03:10:19;10.00;99.90
71155;DHT22;59375;53.216;5.728;2022-09-27T03:12:45;10.00;99.90
71155;DHT22;59375;53.216;5.728;2022-09-27T03:15:10;10.00;99.90
71155;DHT22;59375;53.216;5.728;2022-09-27T03:17:36;10.10;99.90
71155;DHT22;59375;53.216;5.728;2022-09-27T03:20:02;10.10;99.90
71155;DHT22;59375;53.216;5.728;2022-09-27T03:22:27;10.10;99.90
71155;DHT22;59375;53.216;5.728;2022-09-27T03:24:53;10.20;99.90
71155;DHT22;59375;53.216;5.728;2022-09-27T03:27:19;10.20;99.90
71155;DHT22;59375;53.216;5.728;2022-09-27T03:29:44;10.20;99.90
71155;DHT22;59375;53.216;5.728;2022-09-27T03:32:10;10.20;99.90
71155;DHT22;59375;53.216;5.728;2022-09-27T03:34:35;10.20;99.90
71155;DHT22;59375;53.216;5.728;2022-09-27T03:37:01;10.20;99.90
71155;DHT22;59375;53.216;5.728;2022-09-27T03:39:26;10.20;99.90
71155;DHT22;59375;53.216;5.728;2022-09-27T03:41:52;10.30;99.90
71155;DHT22;59375;53.216;5.728;2022-09-27T03:44:18;10.30;99.90
71155;DHT22;59375;53.216;5.728;2022-09-27T03:46:43;10.20;99.90
71155;DHT22;59375;53.216;5.728;2022-09-27T03:49:09;10.20;99.90
71155;DHT22;59375;53.216;5.728;2022-09-27T03:51:34;10.20;99.90
71155;DHT22;59375;53.216;5.728;2022-09-27T03:54:00;10.20;99.90
71155;DHT22;59375;53.216;5.728;2022-09-27T03:56:25;10.20;99.90
71155;DHT22;59375;53.216;5.728;2022-09-27T03:58:51;10.20;99.90
71155;DHT22;59375;53.216;5.728;2022-09-27T04:01:17;10.20;99.90
71155;DHT22;59375;53.216;5.728;2022-09-27T04:03:42;10.20;99.90
71155;DHT22;59375;53.216;5.728;2022-09-27T04:06:08;10.20;99.90
71155;DHT22;59375;53.216;5.728;2022-09-27T04:08:33;10.20;99.90
71155;DHT22;59375;53.216;5.728;2022-09-27T04:10:59;10.20;99.90
71155;DHT22;59375;53.216;5.728;2022-09-27T04:13:24;10.20;99.90
71155;DHT22;59375;53.216;5.728;2022-09-27T04:15:50;10.30;99.90
71155;DHT22;59375;53.216;5.728;2022-09-27T04:18:15;10.20;99.90
71155;DHT22;59375;53.216;5.728;2022-09-27T04:20:41;10.20;99.90
71155;DHT22;59375;53.216;5.728;2022-09-27T04:23:07;10.20;99.90
71155;DHT22;59375;53.216;5.728;2022-09-27T04:25:32;10.20;99.90
71155;DHT22;59375;53.216;5.728;2022-09-27T04:27:58;10.20;99.90
71155;DHT22;59375;53.216;5.728;2022-09-27T04:30:28;10.20;99.90
71155;DHT22;59375;53.216;5.728;2022-09-27T04:32:54;10.20;99.90
71155;DHT22;59375;53.216;5.728;2022-09-27T04:35:19;10.10;99.90
71155;DHT22;59375;53.216;5.728;2022-09-27T04:38:04;10.10;99.90
71155;DHT22;59375;53.216;5.728;2022-09-27T04:40:33;10.10;99.90
71155;DHT22;59375;53.216;5.728;2022-09-27T04:42:58;10.10;99.90
71155;DHT22;59375;53.216;5.728;2022-09-27T04:45:24;10.10;99.90
71155;DHT22;59375;53.216;5.728;2022-09-27T04:47:50;10.10;99.90
71155;DHT22;59375;53.216;5.728;2022-09-27T04:50:17;10.10;99.90
71155;DHT22;59375;53.216;5.728;2022-09-27T04:52:43;10.20;99.90
71155;DHT22;59375;53.216;5.728;2022-09-27T04:55:09;10.20;99.90
71155;DHT22;59375;53.216;5.728;2022-09-27T04:57:35;10.30;99.90
71155;DHT22;59375;53.216;5.728;2022-09-27T05:00:01;10.30;99.90
71155;DHT22;59375;53.216;5.728;2022-09-27T05:02:27;10.30;99.90
71155;DHT22;59375;53.216;5.728;2022-09-27T05:04:54;10.30;99.90
71155;DHT22;59375;53.216;5.728;2022-09-27T05:07:27;10.20;99.90
71155;DHT22;59375;53.216;5.728;2022-09-27T05:09:54;10.30;99.90
71155;DHT22;59375;53.216;5.728;2022-09-27T05:12:20;10.20;99.90
71155;DHT22;59375;53.216;5.728;2022-09-27T05:14:46;10.20;99.90
71155;DHT22;59375;53.216;5.728;2022-09-27T05:17:12;10.20;99.90
71155;DHT22;59375;53.216;5.728;2022-09-27T05:19:37;10.20;99.90
71155;DHT22;59375;53.216;5.728;2022-09-27T05:22:07;10.20;99.90
71155;DHT22;59375;53.216;5.728;2022-09-27T05:24:33;10.20;99.90
71155;DHT22;59375;53.216;5.728;2022-09-27T05:26:59;10.10;99.90
71155;DHT22;59375;53.216;5.728;2022-09-27T05:29:24;10.10;99.90
71155;DHT22;59375;53.216;5.728;2022-09-27T05:31:50;10.10;99.90
71155;DHT22;59375;53.216;5.728;2022-09-27T05:34:16;10.10;99.90
71155;DHT22;59375;53.216;5.728;2022-09-27T05:36:42;10.20;99.90
71155;DHT22;59375;53.216;5.728;2022-09-27T05:39:08;10.20;99.90
71155;DHT22;59375;53.216;5.728;2022-09-27T05:41:33;10.20;99.90
71155;DHT22;59375;53.216;5.728;2022-09-27T05:43:59;10.20;99.90
71155;DHT22;59375;53.216;5.728;2022-09-27T05:46:24;10.20;99.90
71155;DHT22;59375;53.216;5.728;2022-09-27T05:48:50;10.20;99.90
71155;DHT22;59375;53.216;5.728;2022-09-27T05:51:15;10.20;99.90
71155;DHT22;59375;53.216;5.728;2022-09-27T05:53:41;10.20;99.90
71155;DHT22;59375;53.216;5.728;2022-09-27T05:56:06;10.20;99.90
71155;DHT22;59375;53.216;5.728;2022-09-27T05:58:32;10.20;99.90
71155;DHT22;59375;53.216;5.728;2022-09-27T06:00:59;10.20;99.90
71155;DHT22;59375;53.216;5.728;2022-09-27T06:03:24;10.20;99.90
71155;DHT22;59375;53.216;5.728;2022-09-27T06:05:50;10.30;99.90
71155;DHT22;59375;53.216;5.728;2022-09-27T06:08:15;10.30;99.90
71155;DHT22;59375;53.216;5.728;2022-09-27T06:10:41;10.30;99.90
71155;DHT22;59375;53.216;5.728;2022-09-27T06:13:11;10.30;99.90
71155;DHT22;59375;53.216;5.728;2022-09-27T06:15:39;10.40;99.90
71155;DHT22;59375;53.216;5.728;2022-09-27T06:18:10;10.40;99.90
71155;DHT22;59375;53.216;5.728;2022-09-27T06:20:37;10.40;99.90
71155;DHT22;59375;53.216;5.728;2022-09-27T06:25:34;10.50;99.90
71155;DHT22;59375;53.216;5.728;2022-09-27T06:28:00;10.60;99.90
71155;DHT22;59375;53.216;5.728;2022-09-27T06:30:26;10.60;99.90
71155;DHT22;59375;53.216;5.728;2022-09-27T06:32:59;10.60;99.90
71155;DHT22;59375;53.216;5.728;2022-09-27T06:35:26;10.70;99.90
71155;DHT22;59375;53.216;5.728;2022-09-27T06:37:53;10.70;99.90
71155;DHT22;59375;53.216;5.728;2022-09-27T06:40:19;10.70;99.90
71155;DHT22;59375;53.216;5.728;2022-09-27T06:42:44;10.80;99.90
71155;DHT22;59375;53.216;5.728;2022-09-27T06:45:10;10.80;99.90
71155;DHT22;59375;53.216;5.728;2022-09-27T06:47:37;10.90;99.90
71155;DHT22;59375;53.216;5.728;2022-09-27T06:50:05;10.90;99.90
71155;DHT22;59375;53.216;5.728;2022-09-27T06:52:32;11.00;99.90
71155;DHT22;59375;53.216;5.728;2022-09-27T06:54:58;11.00;99.90
71155;DHT22;59375;53.216;5.728;2022-09-27T06:57:23;11.10;99.90
71155;DHT22;59375;53.216;5.728;2022-09-27T07:00:08;11.10;99.90
71155;DHT22;59375;53.216;5.728;2022-09-27T07:02:54;11.10;99.90
71155;DHT22;59375;53.216;5.728;2022-09-27T07:05:26;11.10;99.90
71155;DHT22;59375;53.216;5.728;2022-09-27T07:07:52;11.00;99.90
71155;DHT22;59375;53.216;5.728;2022-09-27T07:10:20;10.90;99.90
71155;DHT22;59375;53.216;5.728;2022-09-27T07:12:46;10.80;99.90
71155;DHT22;59375;53.216;5.728;2022-09-27T07:15:13;10.70;99.90
71155;DHT22;59375;53.216;5.728;2022-09-27T07:17:39;10.70;99.90
71155;DHT22;59375;53.216;5.728;2022-09-27T07:20:06;10.70;99.90
71155;DHT22;59375;53.216;5.728;2022-09-27T07:22:31;10.60;99.90
71155;DHT22;59375;53.216;5.728;2022-09-27T07:24:57;10.60;99.90
71155;DHT22;59375;53.216;5.728;2022-09-27T07:27:22;10.70;99.90
71155;DHT22;59375;53.216;5.728;2022-09-27T07:29:49;10.70;99.90
71155;DHT22;59375;53.216;5.728;2022-09-27T07:32:15;10.80;99.90
71155;DHT22;59375;53.216;5.728;2022-09-27T07:34:40;10.90;99.90
71155;DHT22;59375;53.216;5.728;2022-09-27T07:37:06;11.00;99.90
71155;DHT22;59375;53.216;5.728;2022-09-27T07:39:31;11.20;99.90
71155;DHT22;59375;53.216;5.728;2022-09-27T07:41:57;11.40;99.90
71155;DHT22;59375;53.216;5.728;2022-09-27T07:44:23;11.20;99.90
71155;DHT22;59375;53.216;5.728;2022-09-27T07:46:49;11.10;99.90
71155;DHT22;59375;53.216;5.728;2022-09-27T07:49:14;11.10;99.90
71155;DHT22;59375;53.216;5.728;2022-09-27T07:51:40;11.00;99.90
71155;DHT22;59375;53.216;5.728;2022-09-27T07:54:05;10.90;99.90
71155;DHT22;59375;53.216;5.728;2022-09-27T07:56:31;10.80;99.90
71155;DHT22;59375;53.216;5.728;2022-09-27T07:58:57;10.80;99.90
71155;DHT22;59375;53.216;5.728;2022-09-27T08:01:23;10.80;99.90
71155;DHT22;59375;53.216;5.728;2022-09-27T08:03:49;10.70;99.90
71155;DHT22;59375;53.216;5.728;2022-09-27T08:06:14;10.80;99.90
71155;DHT22;59375;53.216;5.728;2022-09-27T08:08:40;10.90;99.90
71155;DHT22;59375;53.216;5.728;2022-09-27T08:11:13;11.00;99.90
71155;DHT22;59375;53.216;5.728;2022-09-27T08:13:40;11.10;99.90
71155;DHT22;59375;53.216;5.728;2022-09-27T08:16:06;11.20;99.90
71155;DHT22;59375;53.216;5.728;2022-09-27T08:18:32;11.20;99.90
71155;DHT22;59375;53.216;5.728;2022-09-27T08:20:58;11.30;99.90
71155;DHT22;59375;53.216;5.728;2022-09-27T08:23:24;11.30;99.90
71155;DHT22;59375;53.216;5.728;2022-09-27T08:25:53;11.30;99.90
71155;DHT22;59375;53.216;5.728;2022-09-27T08:28:19;11.40;99.90
71155;DHT22;59375;53.216;5.728;2022-09-27T08:30:47;11.40;99.90
71155;DHT22;59375;53.216;5.728;2022-09-27T08:33:13;11.40;99.90
71155;DHT22;59375;53.216;5.728;2022-09-27T08:35:39;11.50;99.90
71155;DHT22;59375;53.216;5.728;2022-09-27T08:38:04;11.40;99.90
71155;DHT22;59375;53.216;5.728;2022-09-27T08:43:32;11.30;99.90
71155;DHT22;59375;53.216;5.728;2022-09-27T08:48:47;11.00;99.90
71155;DHT22;59375;53.216;5.728;2022-09-27T08:51:14;11.10;99.90
71155;DHT22;59375;53.216;5.728;2022-09-27T08:53:46;11.10;99.90
71155;DHT22;59375;53.216;5.728;2022-09-27T08:56:16;11.10;99.90
71155;DHT22;59375;53.216;5.728;2022-09-27T08:59:06;11.30;99.90
71155;DHT22;59375;53.216;5.728;2022-09-27T09:01:34;11.40;99.90
71155;DHT22;59375;53.216;5.728;2022-09-27T09:04:01;11.50;99.90
71155;DHT22;59375;53.216;5.728;2022-09-27T09:09:23;11.80;99.90
71155;DHT22;59375;53.216;5.728;2022-09-27T09:12:19;11.90;99.90
71155;DHT22;59375;53.216;5.728;2022-09-27T09:18:32;12.40;99.90
71155;DHT22;59375;53.216;5.728;2022-09-27T09:24:25;12.70;99.90
71155;DHT22;59375;53.216;5.728;2022-09-27T09:29:46;12.90;99.90
71155;DHT22;59375;53.216;5.728;2022-09-27T09:32:55;13.00;99.90
71155;DHT22;59375;53.216;5.728;2022-09-27T09:35:32;12.80;99.90
71155;DHT22;59375;53.216;5.728;2022-09-27T09:38:01;12.60;99.90
71155;DHT22;59375;53.216;5.728;2022-09-27T09:43:16;12.20;99.90
71155;DHT22;59375;53.216;5.728;2022-09-27T09:45:47;12.00;99.90
71155;DHT22;59375;53.216;5.728;2022-09-27T09:48:43;11.90;99.90
71155;DHT22;59375;53.216;5.728;2022-09-27T09:51:18;11.80;99.90
71155;DHT22;59375;53.216;5.728;2022-09-27T09:53:55;11.70;99.90
71155;DHT22;59375;53.216;5.728;2022-09-27T09:56:28;11.50;99.90
71155;DHT22;59375;53.216;5.728;2022-09-27T09:58:56;11.50;99.90
71155;DHT22;59375;53.216;5.728;2022-09-27T10:01:27;11.40;99.90
71155;DHT22;59375;53.216;5.728;2022-09-27T10:03:54;11.50;99.90
71155;DHT22;59375;53.216;5.728;2022-09-27T10:06:22;11.70;99.90
71155;DHT22;59375;53.216;5.728;2022-09-27T10:08:48;11.90;99.90
71155;DHT22;59375;53.216;5.728;2022-09-27T10:11:22;12.00;99.90
71155;DHT22;59375;53.216;5.728;2022-09-27T10:13:48;12.20;99.90
71155;DHT22;59375;53.216;5.728;2022-09-27T10:16:16;12.30;99.90
71155;DHT22;59375;53.216;5.728;2022-09-27T10:18:43;12.30;99.90
71155;DHT22;59375;53.216;5.728;2022-09-27T10:21:24;12.20;99.90
71155;DHT22;59375;53.216;5.728;2022-09-27T10:24:06;12.00;99.90
71155;DHT22;59375;53.216;5.728;2022-09-27T10:26:36;11.90;99.90
71155;DHT22;59375;53.216;5.728;2022-09-27T10:31:49;11.80;99.90
71155;DHT22;59375;53.216;5.728;2022-09-27T10:34:29;11.90;99.90
71155;DHT22;59375;53.216;5.728;2022-09-27T10:37:25;12.00;99.90
71155;DHT22;59375;53.216;5.728;2022-09-27T10:39:50;12.30;99.90
71155;DHT22;59375;53.216;5.728;2022-09-27T10:44:46;12.90;99.90
71155;DHT22;59375;53.216;5.728;2022-09-27T10:47:17;13.20;99.90
71155;DHT22;59375;53.216;5.728;2022-09-27T10:49:47;13.20;99.90
71155;DHT22;59375;53.216;5.728;2022-09-27T10:52:21;13.20;99.90
71155;DHT22;59375;53.216;5.728;2022-09-27T10:54:56;13.20;99.90
71155;DHT22;59375;53.216;5.728;2022-09-27T10:57:24;13.10;99.90
71155;DHT22;59375;53.216;5.728;2022-09-27T10:59:54;12.90;99.90
71155;DHT22;59375;53.216;5.728;2022-09-27T11:07:47;13.00;99.90
71155;DHT22;59375;53.216;5.728;2022-09-27T11:10:33;13.20;99.90
71155;DHT22;59375;53.216;5.728;2022-09-27T11:13:11;13.40;99.90
71155;DHT22;59375;53.216;5.728;2022-09-27T11:21:21;13.20;99.90
71155;DHT22;59375;53.216;5.728;2022-09-27T11:32:08;13.60;99.90
71155;DHT22;59375;53.216;5.728;2022-09-27T11:38:01;14.10;99.90
71155;DHT22;59375;53.216;5.728;2022-09-27T11:43:34;14.80;99.90
71155;DHT22;59375;53.216;5.728;2022-09-27T11:46:27;15.10;99.90
71155;DHT22;59375;53.216;5.728;2022-09-27T11:49:04;15.70;99.90
71155;DHT22;59375;53.216;5.728;2022-09-27T11:54:58;15.40;99.90
71155;DHT22;59375;53.216;5.728;2022-09-27T12:00:09;15.00;99.90
71155;DHT22;59375;53.216;5.728;2022-09-27T12:11:26;11.50;99.90
71155;DHT22;59375;53.216;5.728;2022-09-27T12:16:25;12.40;99.90
71155;DHT22;59375;53.216;5.728;2022-09-27T12:18:52;12.90;99.90
71155;DHT22;59375;53.216;5.728;2022-09-27T12:21:19;13.00;99.90
71155;DHT22;59375;53.216;5.728;2022-09-27T12:23:53;13.10;99.90
71155;DHT22;59375;53.216;5.728;2022-09-27T12:26:34;13.00;99.90
71155;DHT22;59375;53.216;5.728;2022-09-27T12:29:21;12.80;99.90
71155;DHT22;59375;53.216;5.728;2022-09-27T12:31:58;12.60;99.90
71155;DHT22;59375;53.216;5.728;2022-09-27T12:34:32;12.40;99.90
71155;DHT22;59375;53.216;5.728;2022-09-27T12:37:26;12.30;99.90
71155;DHT22;59375;53.216;5.728;2022-09-27T12:42:38;12.00;99.90
71155;DHT22;59375;53.216;5.728;2022-09-27T12:45:09;11.90;99.90
71155;DHT22;59375;53.216;5.728;2022-09-27T12:47:57;11.80;99.90
71155;DHT22;59375;53.216;5.728;2022-09-27T12:50:35;11.60;99.90
71155;DHT22;59375;53.216;5.728;2022-09-27T13:01:40;11.30;99.90
71155;DHT22;59375;53.216;5.728;2022-09-27T13:04:24;11.40;99.90
71155;DHT22;59375;53.216;5.728;2022-09-27T13:10:00;11.50;99.90
71155;DHT22;59375;53.216;5.728;2022-09-27T13:12:32;11.60;99.90
71155;DHT22;59375;53.216;5.728;2022-09-27T13:15:15;11.70;99.90
71155;DHT22;59375;53.216;5.728;2022-09-27T13:25:53;12.20;99.90
71155;DHT22;59375;53.216;5.728;2022-09-27T13:31:13;12.30;99.90
71155;DHT22;59375;53.216;5.728;2022-09-27T13:33:48;12.30;99.90
71155;DHT22;59375;53.216;5.728;2022-09-27T13:47:00;12.20;99.90
71155;DHT22;59375;53.216;5.728;2022-09-27T13:49:35;12.30;99.90
71155;DHT22;59375;53.216;5.728;2022-09-27T13:52:24;12.30;99.90
71155;DHT22;59375;53.216;5.728;2022-09-27T13:54:56;12.40;99.90
71155;DHT22;59375;53.216;5.728;2022-09-27T13:57:58;12.60;99.90
71155;DHT22;59375;53.216;5.728;2022-09-27T14:00:31;12.70;99.90
71155;DHT22;59375;53.216;5.728;2022-09-27T14:06:27;12.80;99.90
71155;DHT22;59375;53.216;5.728;2022-09-27T14:11:02;12.90;99.90
71155;DHT22;59375;53.216;5.728;2022-09-27T14:13:29;12.90;99.90
71155;DHT22;59375;53.216;5.728;2022-09-27T14:15:58;12.80;99.90
71155;DHT22;59375;53.216;5.728;2022-09-27T14:18:26;12.80;99.90
71155;DHT22;59375;53.216;5.728;2022-09-27T14:21:10;12.80;99.90
71155;DHT22;59375;53.216;5.728;2022-09-27T14:23:38;12.80;99.90
71155;DHT22;59375;53.216;5.728;2022-09-27T14:26:03;12.90;99.90
71155;DHT22;59375;53.216;5.728;2022-09-27T14:28:39;12.90;99.90
71155;DHT22;59375;53.216;5.728;2022-09-27T14:31:15;13.00;99.90
71155;DHT22;59375;53.216;5.728;2022-09-27T14:33:43;13.00;99.90
71155;DHT22;59375;53.216;5.728;2022-09-27T14:36:31;13.00;99.90
71155;DHT22;59375;53.216;5.728;2022-09-27T14:39:26;13.00;99.90
71155;DHT22;59375;53.216;5.728;2022-09-27T14:41:55;13.10;99.90
71155;DHT22;59375;53.216;5.728;2022-09-27T14:44:21;13.00;99.90
71155;DHT22;59375;53.216;5.728;2022-09-27T14:46:47;13.00;99.90
71155;DHT22;59375;53.216;5.728;2022-09-27T14:49:31;13.00;99.90
71155;DHT22;59375;53.216;5.728;2022-09-27T14:51:56;13.00;99.90
71155;DHT22;59375;53.216;5.728;2022-09-27T14:54:25;13.00;99.90
71155;DHT22;59375;53.216;5.728;2022-09-27T14:56:52;13.00;99.90
71155;DHT22;59375;53.216;5.728;2022-09-27T14:59:32;13.00;99.90
71155;DHT22;59375;53.216;5.728;2022-09-27T15:02:01;13.00;99.90
71155;DHT22;59375;53.216;5.728;2022-09-27T15:04:30;13.00;99.90
71155;DHT22;59375;53.216;5.728;2022-09-27T15:06:57;12.90;99.90
71155;DHT22;59375;53.216;5.728;2022-09-27T15:09:23;13.00;99.90
71155;DHT22;59375;53.216;5.728;2022-09-27T15:11:56;13.00;99.90
71155;DHT22;59375;53.216;5.728;2022-09-27T15:14:25;12.90;99.90
71155;DHT22;59375;53.216;5.728;2022-09-27T15:16:52;12.90;99.90
71155;DHT22;59375;53.216;5.728;2022-09-27T15:19:26;12.90;99.90
71155;DHT22;59375;53.216;5.728;2022-09-27T15:21:54;12.80;99.90
71155;DHT22;59375;53.216;5.728;2022-09-27T15:24:42;12.80;99.90
71155;DHT22;59375;53.216;5.728;2022-09-27T15:27:17;12.70;99.90
71155;DHT22;59375;53.216;5.728;2022-09-27T15:29:50;12.70;99.90
71155;DHT22;59375;53.216;5.728;2022-09-27T15:32:18;12.60;99.90
71155;DHT22;59375;53.216;5.728;2022-09-27T15:34:44;12.50;99.90
71155;DHT22;59375;53.216;5.728;2022-09-27T15:37:34;12.40;99.90
71155;DHT22;59375;53.216;5.728;2022-09-27T15:40:57;12.20;99.90
71155;DHT22;59375;53.216;5.728;2022-09-27T15:45:54;11.70;99.90
71155;DHT22;59375;53.216;5.728;2022-09-27T15:48:22;11.50;99.90
71155;DHT22;59375;53.216;5.728;2022-09-27T15:50:48;11.30;99.90
71155;DHT22;59375;53.216;5.728;2022-09-27T15:53:39;11.30;99.90
71155;DHT22;59375;53.216;5.728;2022-09-27T15:56:05;11.30;99.90
71155;DHT22;59375;53.216;5.728;2022-09-27T15:58:32;11.20;99.90
71155;DHT22;59375;53.216;5.728;2022-09-27T16:01:00;11.10;99.90
71155;DHT22;59375;53.216;5.728;2022-09-27T16:03:30;11.10;99.90
71155;DHT22;59375;53.216;5.728;2022-09-27T16:05:57;11.00;99.90
71155;DHT22;59375;53.216;5.728;2022-09-27T16:08:24;11.00;99.90
71155;DHT22;59375;53.216;5.728;2022-09-27T16:10:55;10.90;99.90
71155;DHT22;59375;53.216;5.728;2022-09-27T16:13:21;10.80;99.90
71155;DHT22;59375;53.216;5.728;2022-09-27T16:15:47;10.80;99.90
71155;DHT22;59375;53.216;5.728;2022-09-27T16:18:13;10.70;99.90
71155;DHT22;59375;53.216;5.728;2022-09-27T16:20:39;10.60;99.90
71155;DHT22;59375;53.216;5.728;2022-09-27T16:23:05;10.50;99.90
71155;DHT22;59375;53.216;5.728;2022-09-27T16:25:31;10.50;99.90
71155;DHT22;59375;53.216;5.728;2022-09-27T16:28:00;10.40;99.90
71155;DHT22;59375;53.216;5.728;2022-09-27T16:30:26;10.50;99.90
71155;DHT22;59375;53.216;5.728;2022-09-27T16:32:52;10.40;99.90
71155;DHT22;59375;53.216;5.728;2022-09-27T16:35:21;10.40;99.90
71155;DHT22;59375;53.216;5.728;2022-09-27T16:37:47;10.40;99.90
71155;DHT22;59375;53.216;5.728;2022-09-27T16:40:13;10.40;99.90
71155;DHT22;59375;53.216;5.728;2022-09-27T16:42:39;10.40;99.90
71155;DHT22;59375;53.216;5.728;2022-09-27T16:45:06;10.30;99.90
71155;DHT22;59375;53.216;5.728;2022-09-27T16:47:33;10.30;99.90
71155;DHT22;59375;53.216;5.728;2022-09-27T16:49:58;10.20;99.90
71155;DHT22;59375;53.216;5.728;2022-09-27T16:52:42;10.20;99.90
71155;DHT22;59375;53.216;5.728;2022-09-27T16:55:14;10.20;99.90
71155;DHT22;59375;53.216;5.728;2022-09-27T16:57:42;10.10;99.90
71155;DHT22;59375;53.216;5.728;2022-09-27T17:00:08;10.10;99.90
71155;DHT22;59375;53.216;5.728;2022-09-27T17:02:34;10.10;99.90
71155;DHT22;59375;53.216;5.728;2022-09-27T17:05:00;10.00;99.90
71155;DHT22;59375;53.216;5.728;2022-09-27T17:07:26;10.00;99.90
71155;DHT22;59375;53.216;5.728;2022-09-27T17:09:51;9.90;99.90
71155;DHT22;59375;53.216;5.728;2022-09-27T17:12:17;9.90;99.90
71155;DHT22;59375;53.216;5.728;2022-09-27T17:14:42;9.90;99.90
71155;DHT22;59375;53.216;5.728;2022-09-27T17:17:08;9.90;99.90
71155;DHT22;59375;53.216;5.728;2022-09-27T17:19:33;9.80;99.90
71155;DHT22;59375;53.216;5.728;2022-09-27T17:21:59;9.80;99.90
71155;DHT22;59375;53.216;5.728;2022-09-27T17:24:25;9.80;99.90
71155;DHT22;59375;53.216;5.728;2022-09-27T17:26:51;9.80;99.90
71155;DHT22;59375;53.216;5.728;2022-09-27T17:29:17;9.80;99.90
71155;DHT22;59375;53.216;5.728;2022-09-27T17:31:43;9.90;99.90
71155;DHT22;59375;53.216;5.728;2022-09-27T17:34:11;9.90;99.90
71155;DHT22;59375;53.216;5.728;2022-09-27T17:36:39;9.90;99.90
71155;DHT22;59375;53.216;5.728;2022-09-27T17:39:08;9.90;99.90
71155;DHT22;59375;53.216;5.728;2022-09-27T17:41:35;9.80;99.90
71155;DHT22;59375;53.216;5.728;2022-09-27T17:44:03;9.80;99.90
71155;DHT22;59375;53.216;5.728;2022-09-27T17:46:31;9.80;99.90
71155;DHT22;59375;53.216;5.728;2022-09-27T17:48:57;9.90;99.90
71155;DHT22;59375;53.216;5.728;2022-09-27T17:51:44;9.90;99.90
71155;DHT22;59375;53.216;5.728;2022-09-27T17:54:10;9.90;99.90
71155;DHT22;59375;53.216;5.728;2022-09-27T17:56:40;9.90;99.90
71155;DHT22;59375;53.216;5.728;2022-09-27T17:59:07;9.90;99.90
71155;DHT22;59375;53.216;5.728;2022-09-27T18:01:33;10.00;99.90
71155;DHT22;59375;53.216;5.728;2022-09-27T18:04:00;10.00;99.90
71155;DHT22;59375;53.216;5.728;2022-09-27T18:06:26;10.00;99.90
71155;DHT22;59375;53.216;5.728;2022-09-27T18:08:53;10.00;99.90